PWSweather.com
Personal Weather Stations
Station Observations
ELGHEKO
El Gheko Neighborhood Association, Tucson, AZ 85710

El Gheko Neighborhood AssociationTucson, AZ 85710

Lat: 32.226108, Lon: -110.84443

Elevation: 2598

Station Type: Davis 6153 Vantage Pro 2

http://www.elgheko.us

High Low Average
Temperature 94.2°F34.6°C 73.2°F22.9°C 82.7°F28.2°C
Dew Point 64.4°F18.0°C 57.1°F13.9°C 60.7°F15.9°C
Winds 8.0 mph 12.9 kmh Calm Calm 4.0 mph SW6.4 kmh SW
Wind Gusts 15.0 mph24.1 kmh 1.0 mph1.6 kmh 8.0 mph12.9 kmh
Humidity 74% 31% 49%
Pressure 29.89 in1012.2 mb 29.72 in1006.4 mb -
Precipitation 0.00 in0.0 mm - -
Hour Temp Dew Point Humidity Winds Wind Gusts Pressure Precip Precip Rate Daily Precip Total
12:00 AM 73.2°F22.9°C 64.0°F17.8°C 73% 1.0 mph SW1.6 kmh SW 5.0 mph8.0 kmh 29.82 in1009.8 mb 0.00 in0.0 mm 0.00 in0.0 mm 0.00 in0.0 mm
12:05 AM 73.2°F22.9°C 64.4°F18.0°C 74% Calm Calm 3.0 mph4.8 kmh 29.82 in1009.8 mb 0.00 in0.0 mm 0.00 in0.0 mm 0.00 in0.0 mm
12:10 AM 73.3°F22.9°C 64.1°F17.8°C 73% Calm Calm 2.0 mph3.2 kmh 29.82 in1009.8 mb 0.00 in0.0 mm 0.00 in0.0 mm 0.00 in0.0 mm
12:15 AM 73.3°F22.9°C 64.1°F17.8°C 73% 1.0 mph S1.6 kmh S 4.0 mph6.4 kmh 29.81 in1009.5 mb 0.00 in0.0 mm 0.00 in0.0 mm 0.00 in0.0 mm
12:20 AM 73.5°F23.1°C 63.9°F17.7°C 72% 3.0 mph SSE4.8 kmh SSE 5.0 mph8.0 kmh 29.81 in1009.5 mb 0.00 in0.0 mm 0.00 in0.0 mm 0.00 in0.0 mm
12:25 AM 73.8°F23.2°C 63.8°F17.7°C 71% 3.0 mph ESE4.8 kmh ESE 7.0 mph11.3 kmh 29.80 in1009.1 mb 0.00 in0.0 mm 0.00 in0.0 mm 0.00 in0.0 mm
12:30 AM 73.9°F23.3°C 63.5°F17.5°C 70% 3.0 mph E4.8 kmh E 7.0 mph11.3 kmh 29.80 in1009.1 mb 0.00 in0.0 mm 0.00 in0.0 mm 0.00 in0.0 mm
12:35 AM 74.1°F23.4°C 62.9°F17.2°C 68% 4.0 mph E6.4 kmh E 9.0 mph14.5 kmh 29.79 in1008.8 mb 0.00 in0.0 mm 0.00 in0.0 mm 0.00 in0.0 mm
12:40 AM 74.3°F23.5°C 62.6°F17.0°C 67% 5.0 mph E8.0 kmh E 9.0 mph14.5 kmh 29.79 in1008.8 mb 0.00 in0.0 mm 0.00 in0.0 mm 0.00 in0.0 mm
12:45 AM 74.6°F23.7°C 62.5°F16.9°C 66% 5.0 mph E8.0 kmh E 10.0 mph16.1 kmh 29.79 in1008.8 mb 0.00 in0.0 mm 0.00 in0.0 mm 0.00 in0.0 mm
12:50 AM 74.8°F23.8°C 62.2°F16.8°C 65% 5.0 mph E8.0 kmh E 10.0 mph16.1 kmh 29.78 in1008.5 mb 0.00 in0.0 mm 0.00 in0.0 mm 0.00 in0.0 mm
12:55 AM 74.9°F23.8°C 61.9°F16.6°C 64% 5.0 mph E8.0 kmh E 10.0 mph16.1 kmh 29.78 in1008.5 mb 0.00 in0.0 mm 0.00 in0.0 mm 0.00 in0.0 mm
01:00 AM 75.0°F23.9°C 62.0°F16.7°C 64% 4.0 mph E6.4 kmh E 9.0 mph14.5 kmh 29.79 in1008.8 mb 0.00 in0.0 mm 0.00 in0.0 mm 0.00 in0.0 mm
01:05 AM 74.9°F23.8°C 61.9°F16.6°C 64% 4.0 mph E6.4 kmh E 9.0 mph14.5 kmh 29.79 in1008.8 mb 0.00 in0.0 mm 0.00 in0.0 mm 0.00 in0.0 mm
01:10 AM 74.8°F23.8°C 61.8°F16.6°C 64% 4.0 mph E6.4 kmh E 9.0 mph14.5 kmh 29.80 in1009.1 mb 0.00 in0.0 mm 0.00 in0.0 mm 0.00 in0.0 mm
01:15 AM 74.7°F23.7°C 61.7°F16.5°C 64% 3.0 mph SE4.8 kmh SE 8.0 mph12.9 kmh 29.80 in1009.1 mb 0.00 in0.0 mm 0.00 in0.0 mm 0.00 in0.0 mm
01:20 AM 74.5°F23.6°C 62.4°F16.9°C 66% 4.0 mph SE6.4 kmh SE 9.0 mph14.5 kmh 29.80 in1009.1 mb 0.00 in0.0 mm 0.00 in0.0 mm 0.00 in0.0 mm
01:25 AM 74.3°F23.5°C 62.6°F17.0°C 67% 5.0 mph SE8.0 kmh SE 12.0 mph19.3 kmh 29.81 in1009.5 mb 0.00 in0.0 mm 0.00 in0.0 mm 0.00 in0.0 mm
01:30 AM 74.0°F23.3°C 62.8°F17.1°C 68% 6.0 mph SE9.7 kmh SE 12.0 mph19.3 kmh 29.81 in1009.5 mb 0.00 in0.0 mm 0.00 in0.0 mm 0.00 in0.0 mm
01:35 AM 73.8°F23.2°C 62.6°F17.0°C 68% 6.0 mph SE9.7 kmh SE 12.0 mph19.3 kmh 29.82 in1009.8 mb 0.00 in0.0 mm 0.00 in0.0 mm 0.00 in0.0 mm
01:40 AM 73.6°F23.1°C 62.8°F17.1°C 69% 5.0 mph SE8.0 kmh SE 12.0 mph19.3 kmh 29.81 in1009.5 mb 0.00 in0.0 mm 0.00 in0.0 mm 0.00 in0.0 mm
01:45 AM 73.5°F23.1°C 62.7°F17.1°C 69% 4.0 mph SSE6.4 kmh SSE 10.0 mph16.1 kmh 29.82 in1009.8 mb 0.00 in0.0 mm 0.00 in0.0 mm 0.00 in0.0 mm
01:50 AM 73.4°F23.0°C 62.6°F17.0°C 69% 3.0 mph SSE4.8 kmh SSE 9.0 mph14.5 kmh 29.82 in1009.8 mb 0.00 in0.0 mm 0.00 in0.0 mm 0.00 in0.0 mm
01:55 AM 73.3°F22.9°C 62.5°F16.9°C 69% 4.0 mph S6.4 kmh S 10.0 mph16.1 kmh 29.82 in1009.8 mb 0.00 in0.0 mm 0.00 in0.0 mm 0.00 in0.0 mm
02:00 AM 73.2°F22.9°C 62.4°F16.9°C 69% 3.0 mph S4.8 kmh S 10.0 mph16.1 kmh 29.82 in1009.8 mb 0.00 in0.0 mm 0.00 in0.0 mm 0.00 in0.0 mm
02:05 AM 73.2°F22.9°C 62.0°F16.7°C 68% 2.0 mph S3.2 kmh S 6.0 mph9.7 kmh 29.82 in1009.8 mb 0.00 in0.0 mm 0.00 in0.0 mm 0.00 in0.0 mm
02:10 AM 73.2°F22.9°C 62.0°F16.7°C 68% 2.0 mph SE3.2 kmh SE 7.0 mph11.3 kmh 29.82 in1009.8 mb 0.00 in0.0 mm 0.00 in0.0 mm 0.00 in0.0 mm
02:15 AM 73.2°F22.9°C 62.0°F16.7°C 68% 2.0 mph SE3.2 kmh SE 7.0 mph11.3 kmh 29.82 in1009.8 mb 0.00 in0.0 mm 0.00 in0.0 mm 0.00 in0.0 mm
02:20 AM 73.3°F22.9°C 62.5°F16.9°C 69% 2.0 mph SE3.2 kmh SE 5.0 mph8.0 kmh 29.82 in1009.8 mb 0.00 in0.0 mm 0.00 in0.0 mm 0.00 in0.0 mm
02:25 AM 73.4°F23.0°C 62.2°F16.8°C 68% 3.0 mph E4.8 kmh E 7.0 mph11.3 kmh 29.83 in1010.2 mb 0.00 in0.0 mm 0.00 in0.0 mm 0.00 in0.0 mm
02:30 AM 73.6°F23.1°C 62.4°F16.9°C 68% 4.0 mph E6.4 kmh E 7.0 mph11.3 kmh 29.83 in1010.2 mb 0.00 in0.0 mm 0.00 in0.0 mm 0.00 in0.0 mm
02:35 AM 73.7°F23.2°C 62.1°F16.7°C 67% 4.0 mph E6.4 kmh E 7.0 mph11.3 kmh 29.83 in1010.2 mb 0.00 in0.0 mm 0.00 in0.0 mm 0.00 in0.0 mm
02:40 AM 73.9°F23.3°C 62.2°F16.8°C 67% 4.0 mph E6.4 kmh E 8.0 mph12.9 kmh 29.83 in1010.2 mb 0.00 in0.0 mm 0.00 in0.0 mm 0.00 in0.0 mm
02:45 AM 74.0°F23.3°C 62.3°F16.8°C 67% 4.0 mph E6.4 kmh E 8.0 mph12.9 kmh 29.83 in1010.2 mb 0.00 in0.0 mm 0.00 in0.0 mm 0.00 in0.0 mm
02:50 AM 73.9°F23.3°C 61.8°F16.6°C 66% 3.0 mph E4.8 kmh E 7.0 mph11.3 kmh 29.84 in1010.5 mb 0.00 in0.0 mm 0.00 in0.0 mm 0.00 in0.0 mm
02:55 AM 74.0°F23.3°C 61.9°F16.6°C 66% 4.0 mph ENE6.4 kmh ENE 10.0 mph16.1 kmh 29.84 in1010.5 mb 0.00 in0.0 mm 0.00 in0.0 mm 0.00 in0.0 mm
03:00 AM 74.1°F23.4°C 61.6°F16.4°C 65% 4.0 mph ENE6.4 kmh ENE 10.0 mph16.1 kmh 29.84 in1010.5 mb 0.00 in0.0 mm 0.00 in0.0 mm 0.00 in0.0 mm
03:05 AM 74.2°F23.4°C 61.7°F16.5°C 65% 4.0 mph E6.4 kmh E 8.0 mph12.9 kmh 29.85 in1010.8 mb 0.00 in0.0 mm 0.00 in0.0 mm 0.00 in0.0 mm
03:10 AM 74.3°F23.5°C 61.3°F16.3°C 64% 3.0 mph E4.8 kmh E 7.0 mph11.3 kmh 29.85 in1010.8 mb 0.00 in0.0 mm 0.00 in0.0 mm 0.00 in0.0 mm
03:15 AM 74.3°F23.5°C 61.3°F16.3°C 64% 4.0 mph E6.4 kmh E 9.0 mph14.5 kmh 29.84 in1010.5 mb 0.00 in0.0 mm 0.00 in0.0 mm 0.00 in0.0 mm
03:20 AM 74.4°F23.6°C 61.4°F16.3°C 64% 4.0 mph E6.4 kmh E 9.0 mph14.5 kmh 29.84 in1010.5 mb 0.00 in0.0 mm 0.00 in0.0 mm 0.00 in0.0 mm
03:25 AM 74.5°F23.6°C 61.1°F16.2°C 63% 4.0 mph E6.4 kmh E 8.0 mph12.9 kmh 29.83 in1010.2 mb 0.00 in0.0 mm 0.00 in0.0 mm 0.00 in0.0 mm
03:30 AM 74.6°F23.7°C 61.2°F16.2°C 63% 3.0 mph E4.8 kmh E 8.0 mph12.9 kmh 29.83 in1010.2 mb 0.00 in0.0 mm 0.00 in0.0 mm 0.00 in0.0 mm
03:35 AM 74.6°F23.7°C 61.2°F16.2°C 63% 3.0 mph E4.8 kmh E 6.0 mph9.7 kmh 29.84 in1010.5 mb 0.00 in0.0 mm 0.00 in0.0 mm 0.00 in0.0 mm
03:40 AM 74.6°F23.7°C 61.2°F16.2°C 63% 2.0 mph E3.2 kmh E 4.0 mph6.4 kmh 29.84 in1010.5 mb 0.00 in0.0 mm 0.00 in0.0 mm 0.00 in0.0 mm
03:45 AM 74.5°F23.6°C 61.5°F16.4°C 64% 2.0 mph E3.2 kmh E 4.0 mph6.4 kmh 29.84 in1010.5 mb 0.00 in0.0 mm 0.00 in0.0 mm 0.00 in0.0 mm
03:50 AM 74.5°F23.6°C 61.1°F16.2°C 63% 2.0 mph E3.2 kmh E 3.0 mph4.8 kmh 29.84 in1010.5 mb 0.00 in0.0 mm 0.00 in0.0 mm 0.00 in0.0 mm
03:55 AM 74.5°F23.6°C 60.6°F15.9°C 62% 2.0 mph E3.2 kmh E 3.0 mph4.8 kmh 29.84 in1010.5 mb 0.00 in0.0 mm 0.00 in0.0 mm 0.00 in0.0 mm
04:00 AM 74.6°F23.7°C 60.7°F15.9°C 62% 3.0 mph SE4.8 kmh SE 7.0 mph11.3 kmh 29.84 in1010.5 mb 0.00 in0.0 mm 0.00 in0.0 mm 0.00 in0.0 mm
04:05 AM 74.9°F23.8°C 61.0°F16.1°C 62% 4.0 mph SSE6.4 kmh SSE 9.0 mph14.5 kmh 29.84 in1010.5 mb 0.00 in0.0 mm 0.00 in0.0 mm 0.00 in0.0 mm
04:10 AM 75.1°F23.9°C 61.2°F16.2°C 62% 3.0 mph SE4.8 kmh SE 9.0 mph14.5 kmh 29.84 in1010.5 mb 0.00 in0.0 mm 0.00 in0.0 mm 0.00 in0.0 mm
04:15 AM 75.2°F24.0°C 61.3°F16.3°C 62% 3.0 mph SE4.8 kmh SE 6.0 mph9.7 kmh 29.84 in1010.5 mb 0.00 in0.0 mm 0.00 in0.0 mm 0.00 in0.0 mm
04:20 AM 75.3°F24.1°C 61.4°F16.3°C 62% 3.0 mph SSE4.8 kmh SSE 7.0 mph11.3 kmh 29.84 in1010.5 mb 0.00 in0.0 mm 0.00 in0.0 mm 0.00 in0.0 mm
04:25 AM 75.3°F24.1°C 61.4°F16.3°C 62% 3.0 mph SSE4.8 kmh SSE 7.0 mph11.3 kmh 29.83 in1010.2 mb 0.00 in0.0 mm 0.00 in0.0 mm 0.00 in0.0 mm
04:30 AM 75.3°F24.1°C 61.4°F16.3°C 62% 3.0 mph SSE4.8 kmh SSE 5.0 mph8.0 kmh 29.84 in1010.5 mb 0.00 in0.0 mm 0.00 in0.0 mm 0.00 in0.0 mm
04:35 AM 75.3°F24.1°C 61.4°F16.3°C 62% 2.0 mph SSE3.2 kmh SSE 6.0 mph9.7 kmh 29.84 in1010.5 mb 0.00 in0.0 mm 0.00 in0.0 mm 0.00 in0.0 mm
04:40 AM 75.3°F24.1°C 61.8°F16.6°C 63% 3.0 mph S4.8 kmh S 6.0 mph9.7 kmh 29.84 in1010.5 mb 0.00 in0.0 mm 0.00 in0.0 mm 0.00 in0.0 mm
04:45 AM 75.3°F24.1°C 61.8°F16.6°C 63% 3.0 mph S4.8 kmh S 7.0 mph11.3 kmh 29.84 in1010.5 mb 0.00 in0.0 mm 0.00 in0.0 mm 0.00 in0.0 mm
04:50 AM 75.3°F24.1°C 61.8°F16.6°C 63% 4.0 mph SSE6.4 kmh SSE 7.0 mph11.3 kmh 29.83 in1010.2 mb 0.00 in0.0 mm 0.00 in0.0 mm 0.00 in0.0 mm
04:55 AM 75.3°F24.1°C 61.8°F16.6°C 63% 4.0 mph SSE6.4 kmh SSE 9.0 mph14.5 kmh 29.83 in1010.2 mb 0.00 in0.0 mm 0.00 in0.0 mm 0.00 in0.0 mm
05:00 AM 75.3°F24.1°C 61.4°F16.3°C 62% 3.0 mph SE4.8 kmh SE 9.0 mph14.5 kmh 29.83 in1010.2 mb 0.00 in0.0 mm 0.00 in0.0 mm 0.00 in0.0 mm
05:05 AM 75.3°F24.1°C 60.9°F16.1°C 61% 3.0 mph SE4.8 kmh SE 7.0 mph11.3 kmh 29.83 in1010.2 mb 0.00 in0.0 mm 0.00 in0.0 mm 0.00 in0.0 mm
05:10 AM 75.3°F24.1°C 60.9°F16.1°C 61% 2.0 mph SE3.2 kmh SE 5.0 mph8.0 kmh 29.83 in1010.2 mb 0.00 in0.0 mm 0.00 in0.0 mm 0.00 in0.0 mm
05:15 AM 75.2°F24.0°C 60.8°F16.0°C 61% 2.0 mph SE3.2 kmh SE 5.0 mph8.0 kmh 29.83 in1010.2 mb 0.00 in0.0 mm 0.00 in0.0 mm 0.00 in0.0 mm
05:20 AM 75.2°F24.0°C 60.4°F15.8°C 60% 2.0 mph SE3.2 kmh SE 5.0 mph8.0 kmh 29.83 in1010.2 mb 0.00 in0.0 mm 0.00 in0.0 mm 0.00 in0.0 mm
05:25 AM 75.2°F24.0°C 60.4°F15.8°C 60% 2.0 mph SE3.2 kmh SE 4.0 mph6.4 kmh 29.82 in1009.8 mb 0.00 in0.0 mm 0.00 in0.0 mm 0.00 in0.0 mm
05:30 AM 75.2°F24.0°C 60.4°F15.8°C 60% 2.0 mph SE3.2 kmh SE 5.0 mph8.0 kmh 29.82 in1009.8 mb 0.00 in0.0 mm 0.00 in0.0 mm 0.00 in0.0 mm
05:35 AM 75.2°F24.0°C 60.8°F16.0°C 61% 1.0 mph SE1.6 kmh SE 5.0 mph8.0 kmh 29.82 in1009.8 mb 0.00 in0.0 mm 0.00 in0.0 mm 0.00 in0.0 mm
05:40 AM 75.2°F24.0°C 60.8°F16.0°C 61% 1.0 mph SE1.6 kmh SE 3.0 mph4.8 kmh 29.82 in1009.8 mb 0.00 in0.0 mm 0.00 in0.0 mm 0.00 in0.0 mm
05:45 AM 75.2°F24.0°C 60.8°F16.0°C 61% 1.0 mph SE1.6 kmh SE 3.0 mph4.8 kmh 29.82 in1009.8 mb 0.00 in0.0 mm 0.00 in0.0 mm 0.00 in0.0 mm
05:50 AM 75.2°F24.0°C 60.8°F16.0°C 61% 1.0 mph SE1.6 kmh SE 3.0 mph4.8 kmh 29.82 in1009.8 mb 0.00 in0.0 mm 0.00 in0.0 mm 0.00 in0.0 mm
05:55 AM 75.2°F24.0°C 60.8°F16.0°C 61% 1.0 mph SE1.6 kmh SE 2.0 mph3.2 kmh 29.82 in1009.8 mb 0.00 in0.0 mm 0.00 in0.0 mm 0.00 in0.0 mm
06:00 AM 75.2°F24.0°C 61.3°F16.3°C 62% Calm Calm 2.0 mph3.2 kmh 29.82 in1009.8 mb 0.00 in0.0 mm 0.00 in0.0 mm 0.00 in0.0 mm
06:05 AM 75.1°F23.9°C 61.6°F16.4°C 63% Calm Calm 2.0 mph3.2 kmh 29.82 in1009.8 mb 0.00 in0.0 mm 0.00 in0.0 mm 0.00 in0.0 mm
06:10 AM 75.0°F23.9°C 61.1°F16.2°C 62% Calm Calm 1.0 mph1.6 kmh 29.82 in1009.8 mb 0.00 in0.0 mm 0.00 in0.0 mm 0.00 in0.0 mm
06:15 AM 75.0°F23.9°C 61.1°F16.2°C 62% Calm Calm 3.0 mph4.8 kmh 29.82 in1009.8 mb 0.00 in0.0 mm 0.00 in0.0 mm 0.00 in0.0 mm
06:20 AM 74.9°F23.8°C 61.0°F16.1°C 62% 1.0 mph SE1.6 kmh SE 3.0 mph4.8 kmh 29.82 in1009.8 mb 0.00 in0.0 mm 0.00 in0.0 mm 0.00 in0.0 mm
06:25 AM 75.0°F23.9°C 61.1°F16.2°C 62% 1.0 mph SE1.6 kmh SE 3.0 mph4.8 kmh 29.82 in1009.8 mb 0.00 in0.0 mm 0.00 in0.0 mm 0.00 in0.0 mm
06:30 AM 75.1°F23.9°C 61.2°F16.2°C 62% 1.0 mph SE1.6 kmh SE 3.0 mph4.8 kmh 29.82 in1009.8 mb 0.00 in0.0 mm 0.00 in0.0 mm 0.00 in0.0 mm
06:35 AM 75.2°F24.0°C 61.3°F16.3°C 62% 1.0 mph SE1.6 kmh SE 3.0 mph4.8 kmh 29.82 in1009.8 mb 0.00 in0.0 mm 0.00 in0.0 mm 0.00 in0.0 mm
06:40 AM 75.4°F24.1°C 61.5°F16.4°C 62% Calm Calm 2.0 mph3.2 kmh 29.82 in1009.8 mb 0.00 in0.0 mm 0.00 in0.0 mm 0.00 in0.0 mm
06:45 AM 75.6°F24.2°C 61.7°F16.5°C 62% 1.0 mph W1.6 kmh W 5.0 mph8.0 kmh 29.83 in1010.2 mb 0.00 in0.0 mm 0.00 in0.0 mm 0.00 in0.0 mm
06:50 AM 75.7°F24.3°C 61.8°F16.6°C 62% 3.0 mph W4.8 kmh W 6.0 mph9.7 kmh 29.84 in1010.5 mb 0.00 in0.0 mm 0.00 in0.0 mm 0.00 in0.0 mm
06:55 AM 75.8°F24.3°C 62.3°F16.8°C 63% 3.0 mph W4.8 kmh W 7.0 mph11.3 kmh 29.84 in1010.5 mb 0.00 in0.0 mm 0.00 in0.0 mm 0.00 in0.0 mm
07:00 AM 75.8°F24.3°C 61.8°F16.6°C 62% 3.0 mph W4.8 kmh W 7.0 mph11.3 kmh 29.84 in1010.5 mb 0.00 in0.0 mm 0.00 in0.0 mm 0.00 in0.0 mm
07:05 AM 75.9°F24.4°C 61.9°F16.6°C 62% 3.0 mph WSW4.8 kmh WSW 7.0 mph11.3 kmh 29.84 in1010.5 mb 0.00 in0.0 mm 0.00 in0.0 mm 0.00 in0.0 mm
07:10 AM 76.1°F24.5°C 62.1°F16.7°C 62% 3.0 mph WSW4.8 kmh WSW 7.0 mph11.3 kmh 29.84 in1010.5 mb 0.00 in0.0 mm 0.00 in0.0 mm 0.00 in0.0 mm
07:15 AM 76.3°F24.6°C 61.9°F16.6°C 61% 4.0 mph WSW6.4 kmh WSW 8.0 mph12.9 kmh 29.84 in1010.5 mb 0.00 in0.0 mm 0.00 in0.0 mm 0.00 in0.0 mm
07:20 AM 76.4°F24.7°C 62.0°F16.7°C 61% 3.0 mph WSW4.8 kmh WSW 8.0 mph12.9 kmh 29.84 in1010.5 mb 0.00 in0.0 mm 0.00 in0.0 mm 0.00 in0.0 mm
07:25 AM 76.6°F24.8°C 61.7°F16.5°C 60% 2.0 mph W3.2 kmh W 6.0 mph9.7 kmh 29.84 in1010.5 mb 0.00 in0.0 mm 0.00 in0.0 mm 0.00 in0.0 mm
07:30 AM 76.8°F24.9°C 60.9°F16.1°C 58% 2.0 mph W3.2 kmh W 4.0 mph6.4 kmh 29.84 in1010.5 mb 0.00 in0.0 mm 0.00 in0.0 mm 0.00 in0.0 mm
07:35 AM 77.0°F25.0°C 61.1°F16.2°C 58% 2.0 mph W3.2 kmh W 4.0 mph6.4 kmh 29.84 in1010.5 mb 0.00 in0.0 mm 0.00 in0.0 mm 0.00 in0.0 mm
07:40 AM 77.2°F25.1°C 60.8°F16.0°C 57% 1.0 mph W1.6 kmh W 4.0 mph6.4 kmh 29.84 in1010.5 mb 0.00 in0.0 mm 0.00 in0.0 mm 0.00 in0.0 mm
07:45 AM 77.4°F25.2°C 61.0°F16.1°C 57% 1.0 mph W1.6 kmh W 3.0 mph4.8 kmh 29.84 in1010.5 mb 0.00 in0.0 mm 0.00 in0.0 mm 0.00 in0.0 mm
07:50 AM 77.7°F25.4°C 61.3°F16.3°C 57% 1.0 mph W1.6 kmh W 3.0 mph4.8 kmh 29.85 in1010.8 mb 0.00 in0.0 mm 0.00 in0.0 mm 0.00 in0.0 mm
07:55 AM 78.0°F25.6°C 61.0°F16.1°C 56% 1.0 mph W1.6 kmh W 3.0 mph4.8 kmh 29.85 in1010.8 mb 0.00 in0.0 mm 0.00 in0.0 mm 0.00 in0.0 mm
08:00 AM 78.3°F25.7°C 61.3°F16.3°C 56% 2.0 mph W3.2 kmh W 3.0 mph4.8 kmh 29.85 in1010.8 mb 0.00 in0.0 mm 0.00 in0.0 mm 0.00 in0.0 mm
08:05 AM 78.7°F25.9°C 61.2°F16.2°C 55% 2.0 mph SW3.2 kmh SW 4.0 mph6.4 kmh 29.85 in1010.8 mb 0.00 in0.0 mm 0.00 in0.0 mm 0.00 in0.0 mm
08:10 AM 78.9°F26.1°C 61.4°F16.3°C 55% 2.0 mph SSW3.2 kmh SSW 5.0 mph8.0 kmh 29.85 in1010.8 mb 0.00 in0.0 mm 0.00 in0.0 mm 0.00 in0.0 mm
08:15 AM 79.1°F26.2°C 61.0°F16.1°C 54% 3.0 mph SW4.8 kmh SW 7.0 mph11.3 kmh 29.85 in1010.8 mb 0.00 in0.0 mm 0.00 in0.0 mm 0.00 in0.0 mm
08:20 AM 79.1°F26.2°C 61.0°F16.1°C 54% 3.0 mph SW4.8 kmh SW 7.0 mph11.3 kmh 29.86 in1011.2 mb 0.00 in0.0 mm 0.00 in0.0 mm 0.00 in0.0 mm
08:25 AM 79.2°F26.2°C 61.6°F16.4°C 55% 3.0 mph SW4.8 kmh SW 6.0 mph9.7 kmh 29.86 in1011.2 mb 0.00 in0.0 mm 0.00 in0.0 mm 0.00 in0.0 mm
08:30 AM 79.5°F26.4°C 61.4°F16.3°C 54% 3.0 mph SW4.8 kmh SW 7.0 mph11.3 kmh 29.86 in1011.2 mb 0.00 in0.0 mm 0.00 in0.0 mm 0.00 in0.0 mm
08:35 AM 79.6°F26.4°C 61.5°F16.4°C 54% 3.0 mph SW4.8 kmh SW 8.0 mph12.9 kmh 29.86 in1011.2 mb 0.00 in0.0 mm 0.00 in0.0 mm 0.00 in0.0 mm
08:40 AM 79.8°F26.6°C 61.1°F16.2°C 53% 3.0 mph SW4.8 kmh SW 8.0 mph12.9 kmh 29.86 in1011.2 mb 0.00 in0.0 mm 0.00 in0.0 mm 0.00 in0.0 mm
08:45 AM 79.9°F26.6°C 61.2°F16.2°C 53% 4.0 mph SW6.4 kmh SW 8.0 mph12.9 kmh 29.86 in1011.2 mb 0.00 in0.0 mm 0.00 in0.0 mm 0.00 in0.0 mm
08:50 AM 79.9°F26.6°C 61.2°F16.2°C 53% 4.0 mph SW6.4 kmh SW 8.0 mph12.9 kmh 29.86 in1011.2 mb 0.00 in0.0 mm 0.00 in0.0 mm 0.00 in0.0 mm
08:55 AM 79.9°F26.6°C 61.8°F16.6°C 54% 4.0 mph SW6.4 kmh SW 7.0 mph11.3 kmh 29.86 in1011.2 mb 0.00 in0.0 mm 0.00 in0.0 mm 0.00 in0.0 mm
09:00 AM 80.1°F26.7°C 62.0°F16.7°C 54% 3.0 mph SW4.8 kmh SW 7.0 mph11.3 kmh 29.87 in1011.5 mb 0.00 in0.0 mm 0.00 in0.0 mm 0.00 in0.0 mm
09:05 AM 80.4°F26.9°C 62.2°F16.8°C 54% 3.0 mph SW4.8 kmh SW 7.0 mph11.3 kmh 29.87 in1011.5 mb 0.00 in0.0 mm 0.00 in0.0 mm 0.00 in0.0 mm
09:10 AM 81.0°F27.2°C 61.7°F16.5°C 52% 3.0 mph SW4.8 kmh SW 5.0 mph8.0 kmh 29.87 in1011.5 mb 0.00 in0.0 mm 0.00 in0.0 mm 0.00 in0.0 mm
09:15 AM 81.5°F27.5°C 61.6°F16.4°C 51% 3.0 mph SSW4.8 kmh SSW 6.0 mph9.7 kmh 29.86 in1011.2 mb 0.00 in0.0 mm 0.00 in0.0 mm 0.00 in0.0 mm
09:20 AM 81.9°F27.7°C 62.5°F16.9°C 52% 3.0 mph SSW4.8 kmh SSW 7.0 mph11.3 kmh 29.87 in1011.5 mb 0.00 in0.0 mm 0.00 in0.0 mm 0.00 in0.0 mm
09:25 AM 82.3°F27.9°C 61.8°F16.6°C 50% 3.0 mph SSW4.8 kmh SSW 8.0 mph12.9 kmh 29.86 in1011.2 mb 0.00 in0.0 mm 0.00 in0.0 mm 0.00 in0.0 mm
09:30 AM 82.7°F28.2°C 62.2°F16.8°C 50% 3.0 mph SSW4.8 kmh SSW 8.0 mph12.9 kmh 29.86 in1011.2 mb 0.00 in0.0 mm 0.00 in0.0 mm 0.00 in0.0 mm
09:35 AM 83.3°F28.5°C 62.7°F17.1°C 50% 3.0 mph S4.8 kmh S 6.0 mph9.7 kmh 29.86 in1011.2 mb 0.00 in0.0 mm 0.00 in0.0 mm 0.00 in0.0 mm
09:40 AM 83.2°F28.4°C 61.5°F16.4°C 48% 3.0 mph SW4.8 kmh SW 7.0 mph11.3 kmh 29.86 in1011.2 mb 0.00 in0.0 mm 0.00 in0.0 mm 0.00 in0.0 mm
09:45 AM 83.1°F28.4°C 61.4°F16.3°C 48% 3.0 mph WSW4.8 kmh WSW 7.0 mph11.3 kmh 29.86 in1011.2 mb 0.00 in0.0 mm 0.00 in0.0 mm 0.00 in0.0 mm
09:50 AM 83.1°F28.4°C 62.0°F16.7°C 49% 2.0 mph SW3.2 kmh SW 6.0 mph9.7 kmh 29.86 in1011.2 mb 0.00 in0.0 mm 0.00 in0.0 mm 0.00 in0.0 mm
09:55 AM 82.8°F28.2°C 61.1°F16.2°C 48% 3.0 mph SW4.8 kmh SW 8.0 mph12.9 kmh 29.86 in1011.2 mb 0.00 in0.0 mm 0.00 in0.0 mm 0.00 in0.0 mm
10:00 AM 82.8°F28.2°C 61.1°F16.2°C 48% 3.0 mph WSW4.8 kmh WSW 8.0 mph12.9 kmh 29.86 in1011.2 mb 0.00 in0.0 mm 0.00 in0.0 mm 0.00 in0.0 mm
10:05 AM 82.8°F28.2°C 61.1°F16.2°C 48% 3.0 mph W4.8 kmh W 7.0 mph11.3 kmh 29.86 in1011.2 mb 0.00 in0.0 mm 0.00 in0.0 mm 0.00 in0.0 mm
10:10 AM 82.9°F28.3°C 61.2°F16.2°C 48% 3.0 mph W4.8 kmh W 7.0 mph11.3 kmh 29.86 in1011.2 mb 0.00 in0.0 mm 0.00 in0.0 mm 0.00 in0.0 mm
10:15 AM 82.9°F28.3°C 61.2°F16.2°C 48% 3.0 mph W4.8 kmh W 6.0 mph9.7 kmh 29.85 in1010.8 mb 0.00 in0.0 mm 0.00 in0.0 mm 0.00 in0.0 mm
10:20 AM 83.0°F28.3°C 60.7°F15.9°C 47% 3.0 mph WSW4.8 kmh WSW 6.0 mph9.7 kmh 29.85 in1010.8 mb 0.00 in0.0 mm 0.00 in0.0 mm 0.00 in0.0 mm
10:25 AM 83.2°F28.4°C 60.9°F16.1°C 47% 3.0 mph W4.8 kmh W 6.0 mph9.7 kmh 29.85 in1010.8 mb 0.00 in0.0 mm 0.00 in0.0 mm 0.00 in0.0 mm
10:30 AM 83.3°F28.5°C 61.0°F16.1°C 47% 3.0 mph W4.8 kmh W 6.0 mph9.7 kmh 29.85 in1010.8 mb 0.00 in0.0 mm 0.00 in0.0 mm 0.00 in0.0 mm
10:35 AM 83.3°F28.5°C 61.0°F16.1°C 47% 2.0 mph W3.2 kmh W 6.0 mph9.7 kmh 29.85 in1010.8 mb 0.00 in0.0 mm 0.00 in0.0 mm 0.00 in0.0 mm
10:40 AM 83.4°F28.6°C 60.4°F15.8°C 46% 2.0 mph W3.2 kmh W 6.0 mph9.7 kmh 29.84 in1010.5 mb 0.00 in0.0 mm 0.00 in0.0 mm 0.00 in0.0 mm
10:45 AM 83.6°F28.7°C 60.6°F15.9°C 46% 2.0 mph W3.2 kmh W 6.0 mph9.7 kmh 29.84 in1010.5 mb 0.00 in0.0 mm 0.00 in0.0 mm 0.00 in0.0 mm
10:50 AM 83.6°F28.7°C 61.2°F16.2°C 47% 2.0 mph WSW3.2 kmh WSW 6.0 mph9.7 kmh 29.84 in1010.5 mb 0.00 in0.0 mm 0.00 in0.0 mm 0.00 in0.0 mm
10:55 AM 83.7°F28.7°C 60.7°F15.9°C 46% 3.0 mph WSW4.8 kmh WSW 9.0 mph14.5 kmh 29.84 in1010.5 mb 0.00 in0.0 mm 0.00 in0.0 mm 0.00 in0.0 mm
11:00 AM 83.4°F28.6°C 60.4°F15.8°C 46% 4.0 mph WSW6.4 kmh WSW 9.0 mph14.5 kmh 29.84 in1010.5 mb 0.00 in0.0 mm 0.00 in0.0 mm 0.00 in0.0 mm
11:05 AM 83.5°F28.6°C 60.5°F15.8°C 46% 4.0 mph SW6.4 kmh SW 7.0 mph11.3 kmh 29.84 in1010.5 mb 0.00 in0.0 mm 0.00 in0.0 mm 0.00 in0.0 mm
11:10 AM 83.9°F28.8°C 60.9°F16.1°C 46% 3.0 mph SW4.8 kmh SW 7.0 mph11.3 kmh 29.84 in1010.5 mb 0.00 in0.0 mm 0.00 in0.0 mm 0.00 in0.0 mm
11:15 AM 84.5°F29.2°C 60.8°F16.0°C 45% 4.0 mph SW6.4 kmh SW 7.0 mph11.3 kmh 29.84 in1010.5 mb 0.00 in0.0 mm 0.00 in0.0 mm 0.00 in0.0 mm
11:20 AM 85.3°F29.6°C 61.6°F16.4°C 45% 4.0 mph SW6.4 kmh SW 8.0 mph12.9 kmh 29.83 in1010.2 mb 0.00 in0.0 mm 0.00 in0.0 mm 0.00 in0.0 mm
11:25 AM 86.0°F30.0°C 61.5°F16.4°C 44% 4.0 mph SW6.4 kmh SW 9.0 mph14.5 kmh 29.83 in1010.2 mb 0.00 in0.0 mm 0.00 in0.0 mm 0.00 in0.0 mm
11:30 AM 86.3°F30.2°C 61.8°F16.6°C 44% 4.0 mph SW6.4 kmh SW 9.0 mph14.5 kmh 29.83 in1010.2 mb 0.00 in0.0 mm 0.00 in0.0 mm 0.00 in0.0 mm
11:35 AM 86.4°F30.2°C 61.3°F16.3°C 43% 4.0 mph SW6.4 kmh SW 10.0 mph16.1 kmh 29.83 in1010.2 mb 0.00 in0.0 mm 0.00 in0.0 mm 0.00 in0.0 mm
11:40 AM 86.8°F30.4°C 61.0°F16.1°C 42% 4.0 mph SW6.4 kmh SW 10.0 mph16.1 kmh 29.82 in1009.8 mb 0.00 in0.0 mm 0.00 in0.0 mm 0.00 in0.0 mm
11:45 AM 87.4°F30.8°C 61.5°F16.4°C 42% 4.0 mph SW6.4 kmh SW 9.0 mph14.5 kmh 29.82 in1009.8 mb 0.00 in0.0 mm 0.00 in0.0 mm 0.00 in0.0 mm
11:50 AM 87.5°F30.8°C 60.9°F16.1°C 41% 4.0 mph WSW6.4 kmh WSW 10.0 mph16.1 kmh 29.82 in1009.8 mb 0.00 in0.0 mm 0.00 in0.0 mm 0.00 in0.0 mm
11:55 AM 87.6°F30.9°C 61.0°F16.1°C 41% 4.0 mph WSW6.4 kmh WSW 10.0 mph16.1 kmh 29.82 in1009.8 mb 0.00 in0.0 mm 0.00 in0.0 mm 0.00 in0.0 mm
12:00 PM 88.2°F31.2°C 61.5°F16.4°C 41% 5.0 mph SW8.0 kmh SW 10.0 mph16.1 kmh 29.82 in1009.8 mb 0.00 in0.0 mm 0.00 in0.0 mm 0.00 in0.0 mm
12:05 PM 88.7°F31.5°C 61.3°F16.3°C 40% 5.0 mph SSW8.0 kmh SSW 10.0 mph16.1 kmh 29.82 in1009.8 mb 0.00 in0.0 mm 0.00 in0.0 mm 0.00 in0.0 mm
12:10 PM 88.8°F31.6°C 61.4°F16.3°C 40% 5.0 mph SSW8.0 kmh SSW 10.0 mph16.1 kmh 29.82 in1009.8 mb 0.00 in0.0 mm 0.00 in0.0 mm 0.00 in0.0 mm
12:15 PM 88.8°F31.6°C 61.4°F16.3°C 40% 4.0 mph SW6.4 kmh SW 9.0 mph14.5 kmh 29.82 in1009.8 mb 0.00 in0.0 mm 0.00 in0.0 mm 0.00 in0.0 mm
12:20 PM 88.8°F31.6°C 61.4°F16.3°C 40% 4.0 mph SW6.4 kmh SW 9.0 mph14.5 kmh 29.82 in1009.8 mb 0.00 in0.0 mm 0.00 in0.0 mm 0.00 in0.0 mm
12:25 PM 89.1°F31.7°C 61.6°F16.4°C 40% 4.0 mph SW6.4 kmh SW 9.0 mph14.5 kmh 29.82 in1009.8 mb 0.00 in0.0 mm 0.00 in0.0 mm 0.00 in0.0 mm
12:30 PM 89.3°F31.8°C 61.1°F16.2°C 39% 4.0 mph SW6.4 kmh SW 8.0 mph12.9 kmh 29.82 in1009.8 mb 0.00 in0.0 mm 0.00 in0.0 mm 0.00 in0.0 mm
12:35 PM 89.6°F32.0°C 61.4°F16.3°C 39% 4.0 mph WSW6.4 kmh WSW 11.0 mph17.7 kmh 29.82 in1009.8 mb 0.00 in0.0 mm 0.00 in0.0 mm 0.00 in0.0 mm
12:40 PM 89.2°F31.8°C 61.7°F16.5°C 40% 6.0 mph SW9.7 kmh SW 11.0 mph17.7 kmh 29.82 in1009.8 mb 0.00 in0.0 mm 0.00 in0.0 mm 0.00 in0.0 mm
12:45 PM 89.4°F31.9°C 61.9°F16.6°C 40% 6.0 mph WSW9.7 kmh WSW 11.0 mph17.7 kmh 29.82 in1009.8 mb 0.00 in0.0 mm 0.00 in0.0 mm 0.00 in0.0 mm
12:50 PM 89.5°F31.9°C 62.0°F16.7°C 40% 5.0 mph SW8.0 kmh SW 12.0 mph19.3 kmh 29.82 in1009.8 mb 0.00 in0.0 mm 0.00 in0.0 mm 0.00 in0.0 mm
12:55 PM 90.4°F32.4°C 62.1°F16.7°C 39% 5.0 mph SW8.0 kmh SW 12.0 mph19.3 kmh 29.81 in1009.5 mb 0.00 in0.0 mm 0.00 in0.0 mm 0.00 in0.0 mm
01:00 PM 90.7°F32.6°C 61.6°F16.4°C 38% 6.0 mph SW9.7 kmh SW 12.0 mph19.3 kmh 29.81 in1009.5 mb 0.00 in0.0 mm 0.00 in0.0 mm 0.00 in0.0 mm
01:05 PM 90.6°F32.6°C 61.5°F16.4°C 38% 6.0 mph SW9.7 kmh SW 12.0 mph19.3 kmh 29.81 in1009.5 mb 0.00 in0.0 mm 0.00 in0.0 mm 0.00 in0.0 mm
01:10 PM 90.7°F32.6°C 61.6°F16.4°C 38% 5.0 mph SW8.0 kmh SW 11.0 mph17.7 kmh 29.81 in1009.5 mb 0.00 in0.0 mm 0.00 in0.0 mm 0.00 in0.0 mm
01:15 PM 90.9°F32.7°C 61.8°F16.6°C 38% 5.0 mph SW8.0 kmh SW 10.0 mph16.1 kmh 29.81 in1009.5 mb 0.00 in0.0 mm 0.00 in0.0 mm 0.00 in0.0 mm
01:20 PM 90.4°F32.4°C 61.3°F16.3°C 38% 5.0 mph SW8.0 kmh SW 10.0 mph16.1 kmh 29.81 in1009.5 mb 0.00 in0.0 mm 0.00 in0.0 mm 0.00 in0.0 mm
01:25 PM 90.4°F32.4°C 62.1°F16.7°C 39% 5.0 mph WSW8.0 kmh WSW 10.0 mph16.1 kmh 29.80 in1009.1 mb 0.00 in0.0 mm 0.00 in0.0 mm 0.00 in0.0 mm
01:30 PM 90.4°F32.4°C 62.1°F16.7°C 39% 5.0 mph WSW8.0 kmh WSW 11.0 mph17.7 kmh 29.80 in1009.1 mb 0.00 in0.0 mm 0.00 in0.0 mm 0.00 in0.0 mm
01:35 PM 91.2°F32.9°C 62.0°F16.7°C 38% 5.0 mph WSW8.0 kmh WSW 11.0 mph17.7 kmh 29.80 in1009.1 mb 0.00 in0.0 mm 0.00 in0.0 mm 0.00 in0.0 mm
01:40 PM 91.6°F33.1°C 61.6°F16.4°C 37% 4.0 mph SW6.4 kmh SW 9.0 mph14.5 kmh 29.80 in1009.1 mb 0.00 in0.0 mm 0.00 in0.0 mm 0.00 in0.0 mm
01:45 PM 92.1°F33.4°C 61.3°F16.3°C 36% 5.0 mph SW8.0 kmh SW 10.0 mph16.1 kmh 29.80 in1009.1 mb 0.00 in0.0 mm 0.00 in0.0 mm 0.00 in0.0 mm
01:50 PM 93.0°F33.9°C 61.3°F16.3°C 35% 4.0 mph SW6.4 kmh SW 10.0 mph16.1 kmh 29.80 in1009.1 mb 0.00 in0.0 mm 0.00 in0.0 mm 0.00 in0.0 mm
01:55 PM 92.3°F33.5°C 60.7°F15.9°C 35% 5.0 mph WSW8.0 kmh WSW 10.0 mph16.1 kmh 29.79 in1008.8 mb 0.00 in0.0 mm 0.00 in0.0 mm 0.00 in0.0 mm
02:00 PM 91.1°F32.8°C 61.2°F16.2°C 37% 6.0 mph WSW9.7 kmh WSW 10.0 mph16.1 kmh 29.79 in1008.8 mb 0.00 in0.0 mm 0.00 in0.0 mm 0.00 in0.0 mm
02:05 PM 91.0°F32.8°C 61.1°F16.2°C 37% 5.0 mph WSW8.0 kmh WSW 10.0 mph16.1 kmh 29.79 in1008.8 mb 0.00 in0.0 mm 0.00 in0.0 mm 0.00 in0.0 mm
02:10 PM 91.1°F32.8°C 61.2°F16.2°C 37% 4.0 mph WSW6.4 kmh WSW 9.0 mph14.5 kmh 29.79 in1008.8 mb 0.00 in0.0 mm 0.00 in0.0 mm 0.00 in0.0 mm
02:15 PM 92.0°F33.3°C 61.2°F16.2°C 36% 4.0 mph SW6.4 kmh SW 10.0 mph16.1 kmh 29.79 in1008.8 mb 0.00 in0.0 mm 0.00 in0.0 mm 0.00 in0.0 mm
02:20 PM 92.6°F33.7°C 61.0°F16.1°C 35% 5.0 mph SW8.0 kmh SW 11.0 mph17.7 kmh 29.78 in1008.5 mb 0.00 in0.0 mm 0.00 in0.0 mm 0.00 in0.0 mm
02:25 PM 92.4°F33.6°C 60.8°F16.0°C 35% 6.0 mph SW9.7 kmh SW 11.0 mph17.7 kmh 29.78 in1008.5 mb 0.00 in0.0 mm 0.00 in0.0 mm 0.00 in0.0 mm
02:30 PM 92.7°F33.7°C 61.0°F16.1°C 35% 5.0 mph SW8.0 kmh SW 11.0 mph17.7 kmh 29.77 in1008.1 mb 0.00 in0.0 mm 0.00 in0.0 mm 0.00 in0.0 mm
02:40 PM 93.6°F34.2°C 60.2°F15.7°C 33% 2.0 mph WSW3.2 kmh WSW 4.0 mph6.4 kmh 29.77 in1008.1 mb 0.00 in0.0 mm 0.00 in0.0 mm 0.00 in0.0 mm
02:50 PM 93.8°F34.3°C 59.5°F15.3°C 32% 3.0 mph NW4.8 kmh NW 3.0 mph4.8 kmh 29.76 in1007.8 mb 0.00 in0.0 mm 0.00 in0.0 mm 0.00 in0.0 mm
02:55 PM 93.7°F34.3°C 60.3°F15.7°C 33% 5.0 mph WSW8.0 kmh WSW 12.0 mph19.3 kmh 29.76 in1007.8 mb 0.00 in0.0 mm 0.00 in0.0 mm 0.00 in0.0 mm
03:05 PM 94.1°F34.5°C 58.8°F14.9°C 31% 6.0 mph WNW9.7 kmh WNW 11.0 mph17.7 kmh 29.75 in1007.5 mb 0.00 in0.0 mm 0.00 in0.0 mm 0.00 in0.0 mm
03:10 PM 94.1°F34.5°C 58.8°F14.9°C 31% 6.0 mph WNW9.7 kmh WNW 11.0 mph17.7 kmh 29.75 in1007.5 mb 0.00 in0.0 mm 0.00 in0.0 mm 0.00 in0.0 mm
03:15 PM 94.2°F34.6°C 58.9°F14.9°C 31% 5.0 mph NW8.0 kmh NW 11.0 mph17.7 kmh 29.75 in1007.5 mb 0.00 in0.0 mm 0.00 in0.0 mm 0.00 in0.0 mm
03:20 PM 94.2°F34.6°C 58.9°F14.9°C 31% 5.0 mph WNW8.0 kmh WNW 12.0 mph19.3 kmh 29.75 in1007.5 mb 0.00 in0.0 mm 0.00 in0.0 mm 0.00 in0.0 mm
03:25 PM 93.9°F34.4°C 58.7°F14.8°C 31% 6.0 mph WNW9.7 kmh WNW 12.0 mph19.3 kmh 29.75 in1007.5 mb 0.00 in0.0 mm 0.00 in0.0 mm 0.00 in0.0 mm
03:30 PM 93.9°F34.4°C 59.6°F15.3°C 32% 6.0 mph WNW9.7 kmh WNW 14.0 mph22.5 kmh 29.75 in1007.5 mb 0.00 in0.0 mm 0.00 in0.0 mm 0.00 in0.0 mm
03:35 PM 93.8°F34.3°C 59.5°F15.3°C 32% 7.0 mph WNW11.3 kmh WNW 14.0 mph22.5 kmh 29.74 in1007.1 mb 0.00 in0.0 mm 0.00 in0.0 mm 0.00 in0.0 mm
03:40 PM 93.6°F34.2°C 59.3°F15.2°C 32% 7.0 mph NW11.3 kmh NW 13.0 mph20.9 kmh 29.74 in1007.1 mb 0.00 in0.0 mm 0.00 in0.0 mm 0.00 in0.0 mm
03:45 PM 93.6°F34.2°C 59.3°F15.2°C 32% 7.0 mph WNW11.3 kmh WNW 13.0 mph20.9 kmh 29.74 in1007.1 mb 0.00 in0.0 mm 0.00 in0.0 mm 0.00 in0.0 mm
03:50 PM 93.4°F34.1°C 59.1°F15.1°C 32% 8.0 mph WNW12.9 kmh WNW 14.0 mph22.5 kmh 29.74 in1007.1 mb 0.00 in0.0 mm 0.00 in0.0 mm 0.00 in0.0 mm
03:55 PM 93.2°F34.0°C 59.0°F15.0°C 32% 8.0 mph WNW12.9 kmh WNW 14.0 mph22.5 kmh 29.74 in1007.1 mb 0.00 in0.0 mm 0.00 in0.0 mm 0.00 in0.0 mm
04:00 PM 93.1°F33.9°C 59.7°F15.4°C 33% 6.0 mph WNW9.7 kmh WNW 12.0 mph19.3 kmh 29.74 in1007.1 mb 0.00 in0.0 mm 0.00 in0.0 mm 0.00 in0.0 mm
04:05 PM 93.3°F34.1°C 59.0°F15.0°C 32% 5.0 mph W8.0 kmh W 15.0 mph24.1 kmh 29.74 in1007.1 mb 0.00 in0.0 mm 0.00 in0.0 mm 0.00 in0.0 mm
04:10 PM 92.8°F33.8°C 58.6°F14.8°C 32% 6.0 mph W9.7 kmh W 15.0 mph24.1 kmh 29.74 in1007.1 mb 0.00 in0.0 mm 0.00 in0.0 mm 0.00 in0.0 mm
04:15 PM 92.5°F33.6°C 59.2°F15.1°C 33% 6.0 mph W9.7 kmh W 12.0 mph19.3 kmh 29.73 in1006.8 mb 0.00 in0.0 mm 0.00 in0.0 mm 0.00 in0.0 mm
04:20 PM 92.6°F33.7°C 59.3°F15.2°C 33% 6.0 mph WNW9.7 kmh WNW 12.0 mph19.3 kmh 29.74 in1007.1 mb 0.00 in0.0 mm 0.00 in0.0 mm 0.00 in0.0 mm
04:25 PM 92.4°F33.6°C 59.1°F15.1°C 33% 7.0 mph WNW11.3 kmh WNW 12.0 mph19.3 kmh 29.74 in1007.1 mb 0.00 in0.0 mm 0.00 in0.0 mm 0.00 in0.0 mm
04:30 PM 92.1°F33.4°C 59.7°F15.4°C 34% 6.0 mph W9.7 kmh W 12.0 mph19.3 kmh 29.74 in1007.1 mb 0.00 in0.0 mm 0.00 in0.0 mm 0.00 in0.0 mm
04:35 PM 92.1°F33.4°C 59.7°F15.4°C 34% 5.0 mph W8.0 kmh W 10.0 mph16.1 kmh 29.73 in1006.8 mb 0.00 in0.0 mm 0.00 in0.0 mm 0.00 in0.0 mm
04:40 PM 92.2°F33.4°C 59.8°F15.4°C 34% 5.0 mph W8.0 kmh W 10.0 mph16.1 kmh 29.73 in1006.8 mb 0.00 in0.0 mm 0.00 in0.0 mm 0.00 in0.0 mm
04:45 PM 92.1°F33.4°C 59.7°F15.4°C 34% 5.0 mph W8.0 kmh W 10.0 mph16.1 kmh 29.73 in1006.8 mb 0.00 in0.0 mm 0.00 in0.0 mm 0.00 in0.0 mm
04:50 PM 91.8°F33.2°C 58.6°F14.8°C 33% 5.0 mph WNW8.0 kmh WNW 10.0 mph16.1 kmh 29.73 in1006.8 mb 0.00 in0.0 mm 0.00 in0.0 mm 0.00 in0.0 mm
04:55 PM 91.4°F33.0°C 59.1°F15.1°C 34% 6.0 mph WNW9.7 kmh WNW 13.0 mph20.9 kmh 29.73 in1006.8 mb 0.00 in0.0 mm 0.00 in0.0 mm 0.00 in0.0 mm
05:00 PM 91.2°F32.9°C 58.9°F14.9°C 34% 7.0 mph WNW11.3 kmh WNW 13.0 mph20.9 kmh 29.72 in1006.4 mb 0.00 in0.0 mm 0.00 in0.0 mm 0.00 in0.0 mm
05:05 PM 91.4°F33.0°C 58.3°F14.6°C 33% 6.0 mph W9.7 kmh W 12.0 mph19.3 kmh 29.72 in1006.4 mb 0.00 in0.0 mm 0.00 in0.0 mm 0.00 in0.0 mm
05:10 PM 91.7°F33.2°C 59.3°F15.2°C 34% 5.0 mph W8.0 kmh W 12.0 mph19.3 kmh 29.72 in1006.4 mb 0.00 in0.0 mm 0.00 in0.0 mm 0.00 in0.0 mm
05:15 PM 92.1°F33.4°C 58.9°F14.9°C 33% 5.0 mph W8.0 kmh W 12.0 mph19.3 kmh 29.72 in1006.4 mb 0.00 in0.0 mm 0.00 in0.0 mm 0.00 in0.0 mm
05:20 PM 92.0°F33.3°C 58.8°F14.9°C 33% 6.0 mph WSW9.7 kmh WSW 12.0 mph19.3 kmh 29.73 in1006.8 mb 0.00 in0.0 mm 0.00 in0.0 mm 0.00 in0.0 mm
05:25 PM 91.8°F33.2°C 58.6°F14.8°C 33% 6.0 mph WSW9.7 kmh WSW 11.0 mph17.7 kmh 29.73 in1006.8 mb 0.00 in0.0 mm 0.00 in0.0 mm 0.00 in0.0 mm
05:30 PM 91.9°F33.3°C 58.7°F14.8°C 33% 5.0 mph W8.0 kmh W 11.0 mph17.7 kmh 29.73 in1006.8 mb 0.00 in0.0 mm 0.00 in0.0 mm 0.00 in0.0 mm
05:35 PM 91.7°F33.2°C 58.5°F14.7°C 33% 5.0 mph W8.0 kmh W 12.0 mph19.3 kmh 29.73 in1006.8 mb 0.00 in0.0 mm 0.00 in0.0 mm 0.00 in0.0 mm
05:40 PM 91.4°F33.0°C 59.1°F15.1°C 34% 5.0 mph W8.0 kmh W 12.0 mph19.3 kmh 29.73 in1006.8 mb 0.00 in0.0 mm 0.00 in0.0 mm 0.00 in0.0 mm
05:45 PM 91.2°F32.9°C 58.9°F14.9°C 34% 5.0 mph W8.0 kmh W 11.0 mph17.7 kmh 29.73 in1006.8 mb 0.00 in0.0 mm 0.00 in0.0 mm 0.00 in0.0 mm
05:50 PM 91.0°F32.8°C 59.5°F15.3°C 35% 5.0 mph W8.0 kmh W 9.0 mph14.5 kmh 29.74 in1007.1 mb 0.00 in0.0 mm 0.00 in0.0 mm 0.00 in0.0 mm
05:55 PM 90.8°F32.7°C 58.6°F14.8°C 34% 5.0 mph W8.0 kmh W 10.0 mph16.1 kmh 29.74 in1007.1 mb 0.00 in0.0 mm 0.00 in0.0 mm 0.00 in0.0 mm
06:00 PM 90.7°F32.6°C 58.5°F14.7°C 34% 6.0 mph WNW9.7 kmh WNW 10.0 mph16.1 kmh 29.73 in1006.8 mb 0.00 in0.0 mm 0.00 in0.0 mm 0.00 in0.0 mm
06:05 PM 90.7°F32.6°C 59.3°F15.2°C 35% 6.0 mph WNW9.7 kmh WNW 12.0 mph19.3 kmh 29.73 in1006.8 mb 0.00 in0.0 mm 0.00 in0.0 mm 0.00 in0.0 mm
06:10 PM 90.7°F32.6°C 59.3°F15.2°C 35% 5.0 mph W8.0 kmh W 12.0 mph19.3 kmh 29.73 in1006.8 mb 0.00 in0.0 mm 0.00 in0.0 mm 0.00 in0.0 mm
06:15 PM 90.8°F32.7°C 59.4°F15.2°C 35% 5.0 mph W8.0 kmh W 10.0 mph16.1 kmh 29.74 in1007.1 mb 0.00 in0.0 mm 0.00 in0.0 mm 0.00 in0.0 mm
06:20 PM 90.5°F32.5°C 59.1°F15.1°C 35% 5.0 mph W8.0 kmh W 10.0 mph16.1 kmh 29.74 in1007.1 mb 0.00 in0.0 mm 0.00 in0.0 mm 0.00 in0.0 mm
06:25 PM 90.0°F32.2°C 59.5°F15.3°C 36% 6.0 mph W9.7 kmh W 11.0 mph17.7 kmh 29.74 in1007.1 mb 0.00 in0.0 mm 0.00 in0.0 mm 0.00 in0.0 mm
06:30 PM 89.3°F31.8°C 59.6°F15.3°C 37% 6.0 mph W9.7 kmh W 11.0 mph17.7 kmh 29.74 in1007.1 mb 0.00 in0.0 mm 0.00 in0.0 mm 0.00 in0.0 mm
06:35 PM 88.9°F31.6°C 59.3°F15.2°C 37% 5.0 mph W8.0 kmh W 11.0 mph17.7 kmh 29.75 in1007.5 mb 0.00 in0.0 mm 0.00 in0.0 mm 0.00 in0.0 mm
06:40 PM 88.7°F31.5°C 59.1°F15.1°C 37% 5.0 mph W8.0 kmh W 11.0 mph17.7 kmh 29.76 in1007.8 mb 0.00 in0.0 mm 0.00 in0.0 mm 0.00 in0.0 mm
06:45 PM 88.5°F31.4°C 58.9°F14.9°C 37% 5.0 mph W8.0 kmh W 11.0 mph17.7 kmh 29.76 in1007.8 mb 0.00 in0.0 mm 0.00 in0.0 mm 0.00 in0.0 mm
06:50 PM 88.2°F31.2°C 58.6°F14.8°C 37% 4.0 mph W6.4 kmh W 9.0 mph14.5 kmh 29.76 in1007.8 mb 0.00 in0.0 mm 0.00 in0.0 mm 0.00 in0.0 mm
06:55 PM 88.1°F31.2°C 57.8°F14.3°C 36% 4.0 mph W6.4 kmh W 9.0 mph14.5 kmh 29.77 in1008.1 mb 0.00 in0.0 mm 0.00 in0.0 mm 0.00 in0.0 mm
07:00 PM 87.8°F31.0°C 57.5°F14.2°C 36% 4.0 mph W6.4 kmh W 10.0 mph16.1 kmh 29.77 in1008.1 mb 0.00 in0.0 mm 0.00 in0.0 mm 0.00 in0.0 mm
07:05 PM 87.7°F30.9°C 57.4°F14.1°C 36% 5.0 mph WSW8.0 kmh WSW 10.0 mph16.1 kmh 29.77 in1008.1 mb 0.00 in0.0 mm 0.00 in0.0 mm 0.00 in0.0 mm
07:10 PM 87.5°F30.8°C 57.3°F14.1°C 36% 5.0 mph WSW8.0 kmh WSW 11.0 mph17.7 kmh 29.77 in1008.1 mb 0.00 in0.0 mm 0.00 in0.0 mm 0.00 in0.0 mm
07:15 PM 87.4°F30.8°C 57.2°F14.0°C 36% 4.0 mph WSW6.4 kmh WSW 11.0 mph17.7 kmh 29.77 in1008.1 mb 0.00 in0.0 mm 0.00 in0.0 mm 0.00 in0.0 mm
07:20 PM 87.3°F30.7°C 57.1°F13.9°C 36% 4.0 mph WSW6.4 kmh WSW 10.0 mph16.1 kmh 29.77 in1008.1 mb 0.00 in0.0 mm 0.00 in0.0 mm 0.00 in0.0 mm
07:25 PM 87.2°F30.7°C 57.8°F14.3°C 37% 4.0 mph WSW6.4 kmh WSW 10.0 mph16.1 kmh 29.78 in1008.5 mb 0.00 in0.0 mm 0.00 in0.0 mm 0.00 in0.0 mm
07:30 PM 87.1°F30.6°C 57.7°F14.3°C 37% 3.0 mph WSW4.8 kmh WSW 8.0 mph12.9 kmh 29.78 in1008.5 mb 0.00 in0.0 mm 0.00 in0.0 mm 0.00 in0.0 mm
07:35 PM 87.1°F30.6°C 57.7°F14.3°C 37% 3.0 mph WSW4.8 kmh WSW 8.0 mph12.9 kmh 29.78 in1008.5 mb 0.00 in0.0 mm 0.00 in0.0 mm 0.00 in0.0 mm
07:40 PM 86.9°F30.5°C 57.5°F14.2°C 37% 3.0 mph WSW4.8 kmh WSW 9.0 mph14.5 kmh 29.78 in1008.5 mb 0.00 in0.0 mm 0.00 in0.0 mm 0.00 in0.0 mm
07:45 PM 86.9°F30.5°C 57.5°F14.2°C 37% 3.0 mph WSW4.8 kmh WSW 9.0 mph14.5 kmh 29.79 in1008.8 mb 0.00 in0.0 mm 0.00 in0.0 mm 0.00 in0.0 mm
07:50 PM 86.8°F30.4°C 57.4°F14.1°C 37% 3.0 mph W4.8 kmh W 7.0 mph11.3 kmh 29.79 in1008.8 mb 0.00 in0.0 mm 0.00 in0.0 mm 0.00 in0.0 mm
07:55 PM 86.8°F30.4°C 57.4°F14.1°C 37% 2.0 mph W3.2 kmh W 5.0 mph8.0 kmh 29.79 in1008.8 mb 0.00 in0.0 mm 0.00 in0.0 mm 0.00 in0.0 mm
08:00 PM 86.7°F30.4°C 57.3°F14.1°C 37% 2.0 mph W3.2 kmh W 4.0 mph6.4 kmh 29.80 in1009.1 mb 0.00 in0.0 mm 0.00 in0.0 mm 0.00 in0.0 mm
08:05 PM 86.7°F30.4°C 57.3°F14.1°C 37% 2.0 mph WSW3.2 kmh WSW 4.0 mph6.4 kmh 29.80 in1009.1 mb 0.00 in0.0 mm 0.00 in0.0 mm 0.00 in0.0 mm
08:10 PM 86.6°F30.3°C 58.0°F14.4°C 38% 2.0 mph WSW3.2 kmh WSW 4.0 mph6.4 kmh 29.80 in1009.1 mb 0.00 in0.0 mm 0.00 in0.0 mm 0.00 in0.0 mm
08:15 PM 86.6°F30.3°C 58.0°F14.4°C 38% 2.0 mph WSW3.2 kmh WSW 4.0 mph6.4 kmh 29.80 in1009.1 mb 0.00 in0.0 mm 0.00 in0.0 mm 0.00 in0.0 mm
08:20 PM 86.5°F30.3°C 57.9°F14.4°C 38% 2.0 mph W3.2 kmh W 5.0 mph8.0 kmh 29.80 in1009.1 mb 0.00 in0.0 mm 0.00 in0.0 mm 0.00 in0.0 mm
08:25 PM 86.4°F30.2°C 57.8°F14.3°C 38% 2.0 mph W3.2 kmh W 5.0 mph8.0 kmh 29.80 in1009.1 mb 0.00 in0.0 mm 0.00 in0.0 mm 0.00 in0.0 mm
08:30 PM 86.4°F30.2°C 57.8°F14.3°C 38% 3.0 mph WSW4.8 kmh WSW 8.0 mph12.9 kmh 29.80 in1009.1 mb 0.00 in0.0 mm 0.00 in0.0 mm 0.00 in0.0 mm
08:35 PM 86.4°F30.2°C 57.8°F14.3°C 38% 3.0 mph WSW4.8 kmh WSW 8.0 mph12.9 kmh 29.81 in1009.5 mb 0.00 in0.0 mm 0.00 in0.0 mm 0.00 in0.0 mm
08:40 PM 86.4°F30.2°C 57.8°F14.3°C 38% 2.0 mph WSW3.2 kmh WSW 5.0 mph8.0 kmh 29.81 in1009.5 mb 0.00 in0.0 mm 0.00 in0.0 mm 0.00 in0.0 mm
08:45 PM 86.4°F30.2°C 57.8°F14.3°C 38% 2.0 mph WSW3.2 kmh WSW 4.0 mph6.4 kmh 29.82 in1009.8 mb 0.00 in0.0 mm 0.00 in0.0 mm 0.00 in0.0 mm
08:50 PM 86.4°F30.2°C 58.5°F14.7°C 39% 2.0 mph WSW3.2 kmh WSW 4.0 mph6.4 kmh 29.82 in1009.8 mb 0.00 in0.0 mm 0.00 in0.0 mm 0.00 in0.0 mm
08:55 PM 86.3°F30.2°C 59.1°F15.1°C 40% 2.0 mph SW3.2 kmh SW 4.0 mph6.4 kmh 29.81 in1009.5 mb 0.00 in0.0 mm 0.00 in0.0 mm 0.00 in0.0 mm
09:00 PM 86.3°F30.2°C 58.4°F14.7°C 39% 2.0 mph SW3.2 kmh SW 4.0 mph6.4 kmh 29.81 in1009.5 mb 0.00 in0.0 mm 0.00 in0.0 mm 0.00 in0.0 mm
09:05 PM 86.2°F30.1°C 59.7°F15.4°C 41% 1.0 mph SW1.6 kmh SW 4.0 mph6.4 kmh 29.81 in1009.5 mb 0.00 in0.0 mm 0.00 in0.0 mm 0.00 in0.0 mm
09:10 PM 86.1°F30.1°C 59.6°F15.3°C 41% 2.0 mph SW3.2 kmh SW 6.0 mph9.7 kmh 29.82 in1009.8 mb 0.00 in0.0 mm 0.00 in0.0 mm 0.00 in0.0 mm
09:15 PM 86.0°F30.0°C 60.2°F15.7°C 42% 2.0 mph WSW3.2 kmh WSW 6.0 mph9.7 kmh 29.82 in1009.8 mb 0.00 in0.0 mm 0.00 in0.0 mm 0.00 in0.0 mm
09:20 PM 85.9°F29.9°C 60.1°F15.6°C 42% 2.0 mph WSW3.2 kmh WSW 6.0 mph9.7 kmh 29.82 in1009.8 mb 0.00 in0.0 mm 0.00 in0.0 mm 0.00 in0.0 mm
09:25 PM 85.8°F29.9°C 60.1°F15.6°C 42% 2.0 mph SW3.2 kmh SW 6.0 mph9.7 kmh 29.83 in1010.2 mb 0.00 in0.0 mm 0.00 in0.0 mm 0.00 in0.0 mm
09:30 PM 85.6°F29.8°C 59.9°F15.5°C 42% 3.0 mph SSW4.8 kmh SSW 6.0 mph9.7 kmh 29.83 in1010.2 mb 0.00 in0.0 mm 0.00 in0.0 mm 0.00 in0.0 mm
09:35 PM 85.4°F29.7°C 61.0°F16.1°C 44% 5.0 mph S8.0 kmh S 12.0 mph19.3 kmh 29.84 in1010.5 mb 0.00 in0.0 mm 0.00 in0.0 mm 0.00 in0.0 mm
09:40 PM 85.0°F29.4°C 61.9°F16.6°C 46% 5.0 mph S8.0 kmh S 12.0 mph19.3 kmh 29.84 in1010.5 mb 0.00 in0.0 mm 0.00 in0.0 mm 0.00 in0.0 mm
09:45 PM 84.8°F29.3°C 62.3°F16.8°C 47% 4.0 mph S6.4 kmh S 9.0 mph14.5 kmh 29.85 in1010.8 mb 0.00 in0.0 mm 0.00 in0.0 mm 0.00 in0.0 mm
09:50 PM 84.5°F29.2°C 62.7°F17.1°C 48% 3.0 mph S4.8 kmh S 6.0 mph9.7 kmh 29.85 in1010.8 mb 0.00 in0.0 mm 0.00 in0.0 mm 0.00 in0.0 mm
09:55 PM 84.2°F29.0°C 61.2°F16.2°C 46% 3.0 mph S4.8 kmh S 8.0 mph12.9 kmh 29.86 in1011.2 mb 0.00 in0.0 mm 0.00 in0.0 mm 0.00 in0.0 mm
10:00 PM 84.0°F28.9°C 60.4°F15.8°C 45% 3.0 mph SE4.8 kmh SE 8.0 mph12.9 kmh 29.85 in1010.8 mb 0.00 in0.0 mm 0.00 in0.0 mm 0.00 in0.0 mm
10:05 PM 83.8°F28.8°C 60.8°F16.0°C 46% 4.0 mph SE6.4 kmh SE 10.0 mph16.1 kmh 29.85 in1010.8 mb 0.00 in0.0 mm 0.00 in0.0 mm 0.00 in0.0 mm
10:10 PM 83.3°F28.5°C 60.4°F15.8°C 46% 5.0 mph SSE8.0 kmh SSE 10.0 mph16.1 kmh 29.85 in1010.8 mb 0.00 in0.0 mm 0.00 in0.0 mm 0.00 in0.0 mm
10:15 PM 83.0°F28.3°C 60.7°F15.9°C 47% 5.0 mph S8.0 kmh S 10.0 mph16.1 kmh 29.85 in1010.8 mb 0.00 in0.0 mm 0.00 in0.0 mm 0.00 in0.0 mm
10:20 PM 82.7°F28.2°C 59.8°F15.4°C 46% 4.0 mph SSW6.4 kmh SSW 7.0 mph11.3 kmh 29.85 in1010.8 mb 0.00 in0.0 mm 0.00 in0.0 mm 0.00 in0.0 mm
10:25 PM 82.4°F28.0°C 59.5°F15.3°C 46% 5.0 mph SSW8.0 kmh SSW 13.0 mph20.9 kmh 29.86 in1011.2 mb 0.00 in0.0 mm 0.00 in0.0 mm 0.00 in0.0 mm
10:30 PM 81.5°F27.5°C 61.1°F16.2°C 50% 7.0 mph SSW11.3 kmh SSW 13.0 mph20.9 kmh 29.85 in1010.8 mb 0.00 in0.0 mm 0.00 in0.0 mm 0.00 in0.0 mm
10:35 PM 80.5°F26.9°C 61.8°F16.6°C 53% 7.0 mph SSW11.3 kmh SSW 12.0 mph19.3 kmh 29.85 in1010.8 mb 0.00 in0.0 mm 0.00 in0.0 mm 0.00 in0.0 mm
10:40 PM 79.6°F26.4°C 62.0°F16.7°C 55% 6.0 mph SSW9.7 kmh SSW 10.0 mph16.1 kmh 29.85 in1010.8 mb 0.00 in0.0 mm 0.00 in0.0 mm 0.00 in0.0 mm
10:45 PM 79.0°F26.1°C 61.5°F16.4°C 55% 6.0 mph SSW9.7 kmh SSW 10.0 mph16.1 kmh 29.84 in1010.5 mb 0.00 in0.0 mm 0.00 in0.0 mm 0.00 in0.0 mm
10:50 PM 78.7°F25.9°C 61.7°F16.5°C 56% 6.0 mph SSW9.7 kmh SSW 10.0 mph16.1 kmh 29.86 in1011.2 mb 0.00 in0.0 mm 0.00 in0.0 mm 0.00 in0.0 mm
10:55 PM 78.4°F25.8°C 61.9°F16.6°C 57% 6.0 mph SSW9.7 kmh SSW 12.0 mph19.3 kmh 29.86 in1011.2 mb 0.00 in0.0 mm 0.00 in0.0 mm 0.00 in0.0 mm
11:00 PM 78.2°F25.7°C 59.7°F15.4°C 53% 5.0 mph S8.0 kmh S 12.0 mph19.3 kmh 29.87 in1011.5 mb 0.00 in0.0 mm 0.00 in0.0 mm 0.00 in0.0 mm
11:05 PM 78.5°F25.8°C 59.4°F15.2°C 52% 5.0 mph SSE8.0 kmh SSE 11.0 mph17.7 kmh 29.88 in1011.9 mb 0.00 in0.0 mm 0.00 in0.0 mm 0.00 in0.0 mm
11:10 PM 78.6°F25.9°C 59.5°F15.3°C 52% 5.0 mph S8.0 kmh S 11.0 mph17.7 kmh 29.87 in1011.5 mb 0.00 in0.0 mm 0.00 in0.0 mm 0.00 in0.0 mm
11:15 PM 78.7°F25.9°C 59.6°F15.3°C 52% 5.0 mph S8.0 kmh S 9.0 mph14.5 kmh 29.87 in1011.5 mb 0.00 in0.0 mm 0.00 in0.0 mm 0.00 in0.0 mm
11:20 PM 78.7°F25.9°C 59.6°F15.3°C 52% 4.0 mph S6.4 kmh S 9.0 mph14.5 kmh 29.88 in1011.9 mb 0.00 in0.0 mm 0.00 in0.0 mm 0.00 in0.0 mm
11:25 PM 78.8°F26.0°C 60.2°F15.7°C 53% 3.0 mph SSW4.8 kmh SSW 7.0 mph11.3 kmh 29.89 in1012.2 mb 0.00 in0.0 mm 0.00 in0.0 mm 0.00 in0.0 mm
11:30 PM 78.7°F25.9°C 60.1°F15.6°C 53% 2.0 mph SW3.2 kmh SW 5.0 mph8.0 kmh 29.89 in1012.2 mb 0.00 in0.0 mm 0.00 in0.0 mm 0.00 in0.0 mm
11:35 PM 78.7°F25.9°C 60.7°F15.9°C 54% 2.0 mph SW3.2 kmh SW 5.0 mph8.0 kmh 29.89 in1012.2 mb 0.00 in0.0 mm 0.00 in0.0 mm 0.00 in0.0 mm
11:40 PM 78.5°F25.8°C 61.0°F16.1°C 55% 2.0 mph WSW3.2 kmh WSW 7.0 mph11.3 kmh 29.89 in1012.2 mb 0.00 in0.0 mm 0.00 in0.0 mm 0.00 in0.0 mm
11:45 PM 78.2°F25.7°C 60.7°F15.9°C 55% 4.0 mph WSW6.4 kmh WSW 9.0 mph14.5 kmh 29.89 in1012.2 mb 0.00 in0.0 mm 0.00 in0.0 mm 0.00 in0.0 mm
11:50 PM 77.8°F25.4°C 60.8°F16.0°C 56% 4.0 mph SW6.4 kmh SW 9.0 mph14.5 kmh 29.89 in1012.2 mb 0.00 in0.0 mm 0.00 in0.0 mm 0.00 in0.0 mm
11:55 PM 77.6°F25.3°C 60.7°F15.9°C 56% 3.0 mph SW4.8 kmh SW 8.0 mph12.9 kmh 29.89 in1012.2 mb 0.00 in0.0 mm 0.00 in0.0 mm 0.00 in0.0 mm